Time;durP1;ratioP1;P1;durP2;ratioP2;P2;SDS_P1;SDS_P2;PMS_P1;PMS_P2;Temp;Humidity;BMP_temperature;BMP_pressure;BME280_temperature;BME280_humidity;BME280_pressure;Samples;Min_cycle;Max_cycle;Signal;HPM_P1;HPM_P2
2022/02/05 00:02:05;;;;;;;3.45;1.35;;;3.60;99.90;;;;;;5085682;28;20039;-61
2022/02/05 00:04:10;;;;;;;1.85;0.40;;;3.60;99.90;;;;;;5090388;28;20139;-61
2022/02/05 00:06:39;;;;;;;1.60;0.65;;;3.60;99.90;;;;;;5085804;28;20490;-61
2022/02/05 00:12:33;;;;;;;3.17;0.60;;;3.60;99.90;;;;;;5030890;28;20040;-61
2022/02/05 00:15:47;;;;;;;1.10;0.63;;;3.60;99.90;;;;;;5096840;28;20035;-62
2022/02/05 00:42:10;;;;;;;0.17;0.17;;;3.60;99.90;;;;;;5087566;28;20023;-61
2022/02/05 00:44:36;;;;;;;0.43;0.30;;;3.60;99.90;;;;;;5092419;28;20560;-62
2022/02/05 00:47:02;;;;;;;2.38;0.52;;;3.70;99.90;;;;;;5103692;28;20031;-61
2022/02/05 00:49:27;;;;;;;0.93;0.60;;;3.70;99.90;;;;;;5102554;28;20024;-62
2022/02/05 00:52:05;;;;;;;0.50;0.40;;;3.70;99.90;;;;;;5105583;28;20039;-62
2022/02/05 00:54:30;;;;;;;0.80;0.50;;;3.70;99.90;;;;;;5088143;28;20038;-61
2022/02/05 00:57:19;;;;;;;2.53;0.68;;;3.70;99.90;;;;;;5105504;28;20482;-61
2022/02/05 00:59:41;;;;;;;0.95;0.60;;;3.70;99.90;;;;;;5089094;28;20043;-62
2022/02/05 01:02:07;;;;;;;4.55;0.90;;;3.70;99.90;;;;;;5105167;28;20487;-61
2022/02/05 01:04:32;;;;;;;2.35;1.13;;;3.70;99.90;;;;;;5101699;28;20042;-61
2022/02/05 01:06:58;;;;;;;2.90;0.70;;;3.70;99.90;;;;;;5105274;28;20100;-61
2022/02/05 01:09:25;;;;;;;1.67;0.90;;;3.70;99.90;;;;;;5102814;28;20527;-61
2022/02/05 01:11:52;;;;;;;3.20;0.90;;;3.70;99.90;;;;;;5105148;28;20039;-62
2022/02/05 01:14:23;;;;;;;4.00;1.00;;;3.80;99.90;;;;;;5083914;28;20016;-61
2022/02/05 01:19:37;;;;;;;3.10;0.88;;;3.80;99.90;;;;;;5102065;28;20360;-62
2022/02/05 01:22:02;;;;;;;4.22;1.25;;;3.70;99.90;;;;;;5083437;28;20399;-62
2022/02/05 01:24:28;;;;;;;4.38;1.20;;;3.80;99.90;;;;;;5104440;28;20108;-62
2022/02/05 01:27:03;;;;;;;3.92;1.20;;;3.80;99.90;;;;;;5084557;28;20400;-62
2022/02/05 01:29:48;;;;;;;3.07;1.07;;;3.80;99.90;;;;;;5084836;28;20168;-62
2022/02/05 01:32:19;;;;;;;2.28;0.90;;;3.80;99.90;;;;;;5084658;28;20043;-61
2022/02/05 01:35:02;;;;;;;3.53;1.40;;;3.80;99.90;;;;;;5083249;28;20536;-62
2022/02/05 01:48:56;;;;;;;4.35;2.00;;;3.80;99.90;;;;;;5087215;28;20054;-61
2022/02/05 01:54:29;;;;;;;6.38;2.03;;;3.90;99.90;;;;;;4986249;28;20049;-62
2022/02/05 01:57:22;;;;;;;7.00;1.70;;;3.90;99.90;;;;;;5064691;28;20154;-62
2022/02/05 02:04:43;;;;;;;5.20;1.85;;;3.90;99.90;;;;;;5088141;28;20036;-62
2022/02/05 02:05:27;;;;;;;6.28;2.13;;;4.00;99.90;;;;;;5087961;28;20078;-61
2022/02/05 02:16:06;;;;;;;4.80;2.08;;;4.00;99.90;;;;;;5098707;28;20505;-62
2022/02/05 02:18:46;;;;;;;3.65;1.75;;;4.00;99.90;;;;;;5099936;28;20776;-62
2022/02/05 02:21:36;;;;;;;15.55;2.85;;;4.00;99.90;;;;;;5099667;28;20459;-61
2022/02/05 02:26:44;;;;;;;6.28;1.90;;;4.10;99.90;;;;;;5099700;28;20522;-62
2022/02/05 02:29:16;;;;;;;8.27;2.45;;;4.10;99.90;;;;;;5106570;28;20030;-61
2022/02/05 02:31:45;;;;;;;10.52;2.45;;;4.10;99.90;;;;;;5091379;28;20032;-62
2022/02/05 02:34:16;;;;;;;6.00;2.03;;;4.10;99.90;;;;;;5097848;28;20028;-61
2022/02/05 02:36:56;;;;;;;6.05;1.70;;;4.10;99.90;;;;;;5091265;28;20522;-62
2022/02/05 02:39:34;;;;;;;10.88;1.88;;;4.20;99.90;;;;;;5107648;28;20106;-61
2022/02/05 02:42:04;;;;;;;7.95;2.22;;;4.10;99.90;;;;;;5086988;28;20036;-61
2022/02/05 02:44:30;;;;;;;5.10;1.60;;;4.10;99.90;;;;;;5107780;28;20051;-62
2022/02/05 02:46:55;;;;;;;12.85;2.28;;;4.20;99.90;;;;;;5104955;28;20039;-61
2022/02/05 02:57:56;;;;;;;5.32;1.67;;;4.10;99.90;;;;;;5084524;28;20084;-61
2022/02/05 03:00:22;;;;;;;8.80;1.90;;;4.10;99.90;;;;;;5107629;28;20549;-61
2022/02/05 03:02:48;;;;;;;5.03;2.15;;;4.10;99.90;;;;;;5100357;28;20155;-60
2022/02/05 03:05:14;;;;;;;6.85;1.85;;;4.20;99.90;;;;;;5107261;28;20114;-61
2022/02/05 03:07:39;;;;;;;5.40;1.90;;;4.20;99.90;;;;;;5107090;28;20120;-62
2022/02/05 03:10:05;;;;;;;9.30;1.55;;;4.20;99.90;;;;;;5085508;28;20487;-61
2022/02/05 03:12:31;;;;;;;3.90;1.42;;;4.20;99.90;;;;;;5105009;28;20028;-62
2022/02/05 03:14:56;;;;;;;7.85;2.40;;;4.10;99.90;;;;;;5104048;28;20194;-62
2022/02/05 03:17:24;;;;;;;7.53;1.77;;;4.10;99.90;;;;;;5107086;28;20035;-62
2022/02/05 03:19:55;;;;;;;9.93;1.55;;;4.00;99.90;;;;;;5089272;28;20039;-62
2022/02/05 03:22:22;;;;;;;9.27;1.77;;;4.00;99.90;;;;;;5106434;28;20023;-61
2022/02/05 03:24:48;;;;;;;9.48;1.83;;;3.90;99.90;;;;;;5104668;28;20452;-62
2022/02/05 03:27:17;;;;;;;10.48;2.03;;;3.90;99.90;;;;;;5105842;28;20472;-62
2022/02/05 03:29:46;;;;;;;7.05;1.70;;;3.90;99.90;;;;;;5104421;28;20258;-62
2022/02/05 03:32:12;;;;;;;7.03;2.72;;;3.90;99.90;;;;;;5096194;28;20032;-61
2022/02/05 03:34:38;;;;;;;5.15;1.80;;;4.00;99.90;;;;;;5103680;28;20015;-62
2022/02/05 03:37:05;;;;;;;6.25;1.65;;;4.00;99.90;;;;;;5106267;28;20039;-62
2022/02/05 03:39:31;;;;;;;5.35;1.95;;;4.00;99.90;;;;;;5104562;28;20028;-62
2022/02/05 03:41:56;;;;;;;8.82;1.88;;;4.10;99.90;;;;;;5102540;28;20042;-62
2022/02/05 03:44:23;;;;;;;12.25;2.10;;;4.10;99.90;;;;;;5104467;28;20768;-62
2022/02/05 03:46:49;;;;;;;6.95;2.10;;;4.10;99.90;;;;;;5103183;28;20080;-62
2022/02/05 03:49:17;;;;;;;5.97;1.92;;;4.10;99.90;;;;;;5104621;28;20108;-61
2022/02/05 03:51:44;;;;;;;9.52;1.88;;;4.10;99.90;;;;;;5109549;28;20027;-60
2022/02/05 03:54:11;;;;;;;4.97;1.60;;;4.20;99.90;;;;;;5107881;28;20066;-61
2022/02/05 03:56:36;;;;;;;7.43;1.77;;;4.20;99.90;;;;;;5107681;28;20134;-61
2022/02/05 03:59:02;;;;;;;6.65;2.00;;;4.10;99.90;;;;;;5109645;28;20107;-62
2022/02/05 04:01:28;;;;;;;7.03;1.50;;;4.00;99.90;;;;;;5108610;28;20027;-61
2022/02/05 04:03:53;;;;;;;6.43;1.70;;;3.90;99.90;;;;;;5087613;28;20025;-61
2022/02/05 04:06:19;;;;;;;8.38;1.80;;;3.90;99.90;;;;;;5108549;28;20186;-61
2022/02/05 04:08:46;;;;;;;3.83;1.75;;;4.00;99.90;;;;;;5107328;28;20503;-62
2022/02/05 04:16:41;;;;;;;5.85;1.55;;;4.10;99.90;;;;;;5088434;28;20149;-61
2022/02/05 04:19:07;;;;;;;8.00;1.90;;;4.10;99.90;;;;;;5109419;28;20507;-61
2022/02/05 04:21:33;;;;;;;2.63;1.67;;;4.10;99.90;;;;;;5109324;28;20447;-61
2022/02/05 04:24:02;;;;;;;7.78;1.70;;;4.10;99.90;;;;;;5107673;28;20027;-61
2022/02/05 04:26:29;;;;;;;5.45;1.65;;;4.20;99.90;;;;;;5109235;28;20040;-61
2022/02/05 04:28:56;;;;;;;8.57;2.15;;;4.20;99.90;;;;;;5087592;28;20399;-61
2022/02/05 04:31:22;;;;;;;7.35;1.55;;;4.10;99.90;;;;;;5108503;28;20034;-61
2022/02/05 04:33:48;;;;;;;4.07;1.73;;;4.20;99.90;;;;;;5107182;28;20031;-61
2022/02/05 04:36:14;;;;;;;5.63;1.77;;;4.10;99.90;;;;;;5108980;28;20111;-61
2022/02/05 04:38:42;;;;;;;8.25;2.00;;;4.10;99.90;;;;;;5089730;28;20028;-61
2022/02/05 04:41:26;;;;;;;4.40;1.55;;;4.20;99.90;;;;;;5108849;28;20134;-61
2022/02/05 04:46:49;;;;;;;6.50;2.20;;;4.20;99.90;;;;;;5088575;28;20140;-61
2022/02/05 04:56:48;;;;;;;6.03;1.75;;;4.10;99.90;;;;;;5106861;28;20063;-61
2022/02/05 05:02:13;;;;;;;7.05;2.50;;;4.10;99.90;;;;;;5088608;28;20038;-61
2022/02/05 05:04:44;;;;;;;5.35;2.28;;;4.00;99.90;;;;;;5108780;28;20027;-61
2022/02/05 05:09:58;;;;;;;10.35;3.40;;;4.10;99.90;;;;;;5108851;28;20157;-61
2022/02/05 05:20:22;;;;;;;5.55;1.92;;;4.00;99.90;;;;;;5101262;28;20144;-61
2022/02/05 05:22:48;;;;;;;7.70;3.17;;;4.00;99.90;;;;;;5110739;28;20032;-61
2022/02/05 05:25:14;;;;;;;12.25;2.55;;;4.00;99.90;;;;;;5112389;28;20338;-61
2022/02/05 05:27:39;;;;;;;7.70;2.55;;;4.00;99.90;;;;;;5097521;28;20380;-61
2022/02/05 05:30:06;;;;;;;12.05;2.45;;;4.10;99.90;;;;;;5112009;28;20097;-61
2022/02/05 05:32:31;;;;;;;5.05;2.45;;;4.10;99.90;;;;;;5110715;28;20414;-62
2022/02/05 05:34:57;;;;;;;6.43;2.00;;;4.10;99.90;;;;;;5112533;28;20026;-62
2022/02/05 05:37:22;;;;;;;11.10;2.67;;;4.10;99.90;;;;;;5110474;28;20024;-61
2022/02/05 05:39:49;;;;;;;9.85;2.53;;;4.20;99.90;;;;;;5112418;28;20517;-62
2022/02/05 05:42:24;;;;;;;10.25;3.33;;;4.20;99.90;;;;;;5103441;28;20051;-61
2022/02/05 05:45:01;;;;;;;8.25;2.67;;;4.20;99.90;;;;;;5091990;28;20101;-61
2022/02/05 05:52:18;;;;;;;11.98;2.67;;;4.20;99.90;;;;;;5110271;28;20028;-61
2022/02/05 05:54:44;;;;;;;6.78;2.38;;;4.30;99.90;;;;;;5112097;28;20493;-61
2022/02/05 05:57:10;;;;;;;9.27;2.83;;;4.20;99.90;;;;;;5110149;28;20036;-61
2022/02/05 05:59:38;;;;;;;8.32;2.53;;;4.20;99.90;;;;;;5112069;28;20020;-62
2022/02/05 06:02:03;;;;;;;6.28;2.60;;;4.30;99.90;;;;;;5109997;28;20058;-61
2022/02/05 06:04:29;;;;;;;7.15;2.38;;;4.20;99.90;;;;;;5111982;28;20464;-61
2022/02/05 06:06:55;;;;;;;5.00;2.42;;;4.20;99.90;;;;;;5109793;28;20460;-61
2022/02/05 06:09:20;;;;;;;9.45;3.00;;;4.30;99.90;;;;;;5112134;28;20066;-61
2022/02/05 06:11:46;;;;;;;7.88;2.33;;;4.20;99.90;;;;;;5109749;28;20080;-61
2022/02/05 06:14:16;;;;;;;4.88;1.70;;;4.20;99.90;;;;;;5111819;28;20102;-61
2022/02/05 06:16:43;;;;;;;9.73;2.60;;;4.20;99.90;;;;;;5110159;28;20038;-62
2022/02/05 06:19:09;;;;;;;7.00;2.20;;;4.20;99.90;;;;;;5111426;28;20544;-61
2022/02/05 06:21:34;;;;;;;6.65;2.50;;;4.30;99.90;;;;;;5110002;28;20039;-61
2022/02/05 06:24:00;;;;;;;5.18;2.30;;;4.30;99.90;;;;;;5111716;28;20043;-61
2022/02/05 06:26:25;;;;;;;5.18;2.00;;;4.20;99.90;;;;;;5109647;28;20035;-61
2022/02/05 06:28:51;;;;;;;8.10;2.20;;;4.30;99.90;;;;;;5111691;28;20026;-61
2022/02/05 06:31:17;;;;;;;7.18;2.22;;;4.20;99.90;;;;;;5108182;28;20411;-61
2022/02/05 06:33:42;;;;;;;6.50;2.13;;;4.20;99.90;;;;;;5111469;28;20475;-61
2022/02/05 06:36:08;;;;;;;8.05;1.95;;;4.20;99.90;;;;;;5109318;28;20113;-61
2022/02/05 06:38:33;;;;;;;4.50;2.20;;;4.10;99.90;;;;;;5111588;28;20168;-61
2022/02/05 06:40:59;;;;;;;6.82;3.05;;;4.00;99.90;;;;;;5111235;28;20027;-62
2022/02/05 06:43:24;;;;;;;6.47;2.55;;;4.00;99.90;;;;;;5105808;28;20043;-61
2022/02/05 06:45:49;;;;;;;6.68;1.70;;;4.00;99.90;;;;;;5111203;28;20366;-61
2022/02/05 06:48:15;;;;;;;4.72;2.60;;;4.00;99.90;;;;;;5091175;28;20423;-61
2022/02/05 06:50:40;;;;;;;14.65;3.13;;;4.00;99.90;;;;;;5110431;28;20024;-61
2022/02/05 06:53:06;;;;;;;8.88;2.33;;;4.10;99.90;;;;;;5109256;28;20035;-61
2022/02/05 06:55:31;;;;;;;7.35;2.22;;;4.10;99.90;;;;;;5110887;28;20036;-62
2022/02/05 06:57:57;;;;;;;7.35;2.78;;;4.20;99.90;;;;;;5093559;28;20032;-61
2022/02/05 07:00:22;;;;;;;5.63;2.80;;;4.20;99.90;;;;;;5110298;28;20051;-62
2022/02/05 07:02:48;;;;;;;6.47;2.35;;;4.30;99.90;;;;;;5108960;28;20563;-61
2022/02/05 07:05:13;;;;;;;6.72;2.55;;;4.30;99.90;;;;;;5110779;28;20102;-61
2022/02/05 07:07:40;;;;;;;6.05;2.80;;;4.30;99.90;;;;;;5095990;28;20052;-61
2022/02/05 07:10:07;;;;;;;6.90;2.40;;;4.30;99.90;;;;;;5110464;28;20054;-61
2022/02/05 07:12:38;;;;;;;8.13;2.50;;;4.30;99.90;;;;;;5108809;28;20522;-62
2022/02/05 07:15:11;;;;;;;6.60;2.45;;;4.20;99.90;;;;;;5090577;28;20475;-61
2022/02/05 07:17:46;;;;;;;5.07;2.63;;;4.20;99.90;;;;;;5101464;28;20048;-61
2022/02/05 07:20:26;;;;;;;11.35;3.17;;;4.20;99.90;;;;;;5099578;28;20112;-61
2022/02/05 07:30:58;;;;;;;4.47;2.03;;;4.10;99.90;;;;;;5090400;28;20051;-62
2022/02/05 07:33:24;;;;;;;4.80;2.17;;;4.10;99.90;;;;;;5108377;28;20020;-61
2022/02/05 07:35:49;;;;;;;4.85;2.65;;;4.10;99.90;;;;;;5110103;28;20046;-62
2022/02/05 07:38:15;;;;;;;4.43;1.90;;;4.00;99.90;;;;;;5090232;28;20016;-61
2022/02/05 07:40:41;;;;;;;7.57;2.08;;;4.00;99.90;;;;;;5109566;28;20039;-62
2022/02/05 07:43:06;;;;;;;3.20;1.75;;;3.90;99.90;;;;;;5085949;28;20026;-61
2022/02/05 07:45:31;;;;;;;3.60;1.33;;;3.90;99.90;;;;;;5109889;28;20483;-62
2022/02/05 07:47:57;;;;;;;3.00;1.55;;;3.90;99.90;;;;;;5092571;28;20024;-62
2022/02/05 07:50:23;;;;;;;3.40;1.48;;;3.90;99.90;;;;;;5105702;28;20053;-61
2022/02/05 07:52:48;;;;;;;1.17;1.02;;;3.90;99.90;;;;;;5089170;28;20107;-61
2022/02/05 07:55:13;;;;;;;4.63;1.35;;;3.90;99.90;;;;;;5109259;28;20040;-61
2022/02/05 07:57:39;;;;;;;2.88;0.85;;;3.80;99.90;;;;;;5108183;28;20537;-61
2022/02/05 08:00:05;;;;;;;3.28;1.17;;;3.70;99.90;;;;;;5109910;28;20032;-61
2022/02/05 08:02:31;;;;;;;2.55;1.33;;;3.60;99.90;;;;;;5108049;28;20498;-61
2022/02/05 08:04:56;;;;;;;1.73;1.13;;;3.50;99.90;;;;;;5109706;28;20035;-61
2022/02/05 08:07:22;;;;;;;2.20;1.13;;;3.50;99.90;;;;;;5090307;28;20123;-61
2022/02/05 08:12:18;;;;;;;3.83;1.25;;;3.80;99.90;;;;;;5107726;28;20023;-61
2022/02/05 08:14:45;;;;;;;1.85;0.70;;;4.10;99.90;;;;;;5109655;28;20020;-61
2022/02/05 08:17:19;;;;;;;3.63;1.05;;;4.20;99.90;;;;;;5091776;28;20100;-61
2022/02/05 08:19:45;;;;;;;3.67;0.82;;;4.40;99.90;;;;;;5094936;28;20085;-61
2022/02/05 08:22:12;;;;;;;1.08;0.68;;;5.10;99.90;;;;;;5107686;28;20039;-61
2022/02/05 08:24:37;;;;;;;1.92;0.80;;;4.90;99.90;;;;;;5109432;28;20068;-61
2022/02/05 08:27:03;;;;;;;3.10;1.17;;;4.60;99.90;;;;;;5107605;28;20027;-61
2022/02/05 08:29:30;;;;;;;2.45;0.80;;;4.50;99.90;;;;;;5109304;28;20384;-61
2022/02/05 08:31:56;;;;;;;2.28;0.95;;;4.60;99.90;;;;;;5093297;28;20027;-61
2022/02/05 08:34:21;;;;;;;4.55;1.10;;;4.60;99.90;;;;;;5108577;28;20407;-61
2022/02/05 08:36:48;;;;;;;2.22;1.50;;;4.70;99.90;;;;;;5107199;28;20051;-61
2022/02/05 08:39:14;;;;;;;3.42;0.90;;;4.70;99.90;;;;;;5109247;28;20024;-61
2022/02/05 08:41:41;;;;;;;3.13;1.30;;;4.80;99.90;;;;;;5094715;28;20065;-60
2022/02/05 08:44:07;;;;;;;1.80;1.20;;;5.00;99.90;;;;;;5106766;28;20023;-61
2022/02/05 08:46:35;;;;;;;4.55;1.67;;;5.30;99.90;;;;;;5106969;28;20027;-61
2022/02/05 08:49:01;;;;;;;4.32;1.60;;;6.40;99.90;;;;;;5108888;28;20020;-61
2022/02/05 08:51:27;;;;;;;3.13;1.50;;;6.30;99.90;;;;;;5107194;28;20049;-61
2022/02/05 08:53:54;;;;;;;6.63;1.83;;;6.40;99.90;;;;;;5108720;28;20051;-61
2022/02/05 08:56:21;;;;;;;3.70;1.48;;;6.60;99.90;;;;;;5106832;28;20079;-61
2022/02/05 08:58:48;;;;;;;4.88;1.50;;;7.10;99.90;;;;;;5108959;28;20036;-61
2022/02/05 09:01:17;;;;;;;2.50;1.30;;;7.70;99.90;;;;;;5092133;28;20028;-61
2022/02/05 09:06:28;;;;;;;6.90;1.85;;;7.30;99.90;;;;;;5087057;28;20165;-60
2022/02/05 09:09:07;;;;;;;3.65;1.33;;;6.80;99.90;;;;;;5099710;28;20055;-61
2022/02/05 09:11:40;;;;;;;3.25;1.13;;;6.50;99.90;;;;;;5087602;28;20036;-62
2022/02/05 09:14:16;;;;;;;5.97;1.20;;;6.10;99.90;;;;;;5085809;28;20032;-61
2022/02/05 09:16:44;;;;;;;5.07;1.35;;;5.70;99.90;;;;;;5087480;28;20048;-62
2022/02/05 09:19:10;;;;;;;5.55;1.05;;;5.50;99.90;;;;;;5105354;28;20135;-61
2022/02/05 09:21:35;;;;;;;3.15;1.20;;;5.60;99.90;;;;;;5108138;28;20921;-61
2022/02/05 09:24:03;;;;;;;5.30;1.45;;;6.10;99.90;;;;;;5091206;28;20557;-61
2022/02/05 09:26:31;;;;;;;7.07;1.02;;;6.60;99.90;;;;;;5107375;28;20061;-61
2022/02/05 09:29:03;;;;;;;2.15;0.80;;;7.90;99.90;;;;;;5105532;28;20411;-62
2022/02/05 09:31:34;;;;;;;1.67;0.95;;;7.50;99.90;;;;;;5087330;28;20479;-62
2022/02/05 09:34:00;;;;;;;3.50;1.02;;;7.30;99.90;;;;;;5101567;28;20028;-61
2022/02/05 09:36:26;;;;;;;2.05;0.95;;;7.80;99.90;;;;;;5107462;28;20066;-62
2022/02/05 09:38:53;;;;;;;4.60;1.30;;;8.10;99.90;;;;;;5092271;28;20020;-62
2022/02/05 09:41:19;;;;;;;3.38;1.58;;;8.10;99.90;;;;;;5106941;28;20042;-62
2022/02/05 09:43:47;;;;;;;3.58;0.90;;;7.90;99.90;;;;;;5101987;28;20039;-62
2022/02/05 09:46:14;;;;;;;4.38;0.88;;;7.80;99.90;;;;;;5106245;28;20428;-61
2022/02/05 09:48:39;;;;;;;2.25;0.93;;;7.50;99.90;;;;;;5095220;28;20613;-61
2022/02/05 09:51:08;;;;;;;1.80;0.80;;;7.30;99.90;;;;;;5107810;28;20036;-61
2022/02/05 09:53:35;;;;;;;5.25;0.85;;;7.40;99.90;;;;;;5101875;28;20763;-52
2022/02/05 09:56:00;;;;;;;4.85;1.13;;;7.60;99.90;;;;;;5106704;28;20100;-48
2022/02/05 09:58:26;;;;;;;3.95;0.75;;;7.70;99.90;;;;;;5105484;28;20487;-47
2022/02/05 10:01:08;;;;;;;3.80;1.27;;;7.80;99.90;;;;;;5107026;28;20095;-49
2022/02/05 10:03:34;;;;;;;5.18;1.00;;;7.60;99.90;;;;;;5087456;28;20020;-47
2022/02/05 10:06:41;;;;;;;4.65;1.45;;;7.50;99.90;;;;;;5108252;28;20073;-47
2022/02/05 10:09:12;;;;;;;4.40;1.30;;;7.40;99.90;;;;;;5092479;28;20122;-47
2022/02/05 10:11:51;;;;;;;2.88;1.02;;;7.20;99.90;;;;;;5110808;28;20031;-49
2022/02/05 10:14:22;;;;;;;6.40;1.65;;;6.90;99.90;;;;;;5097626;28;20300;-47
2022/02/05 10:16:53;;;;;;;4.50;1.27;;;6.80;99.90;;;;;;5111467;28;20045;-51
2022/02/05 10:19:20;;;;;;;2.25;1.33;;;6.70;99.90;;;;;;5109531;28;20050;-50
2022/02/05 10:22:03;;;;;;;4.40;1.35;;;6.80;99.90;;;;;;5111876;28;20044;-49
2022/02/05 10:24:29;;;;;;;3.15;1.40;;;6.70;99.90;;;;;;5099544;28;20027;-53
2022/02/05 10:26:55;;;;;;;2.80;1.20;;;6.60;99.90;;;;;;5111515;28;20495;-50
2022/02/05 10:29:21;;;;;;;7.90;2.45;;;6.60;99.90;;;;;;5109564;28;20099;-50
2022/02/05 10:32:16;;;;;;;4.47;1.65;;;6.60;99.90;;;;;;5111469;28;20127;-53
2022/02/05 10:37:28;;;;;;;6.32;1.77;;;6.70;99.90;;;;;;5091228;28;20368;-49
2022/02/05 10:45:11;;;;;;;8.43;2.08;;;7.10;99.90;;;;;;5105940;28;20459;-49
2022/02/05 10:47:52;;;;;;;4.75;1.70;;;7.10;99.90;;;;;;5111222;28;20028;-51
2022/02/05 10:50:21;;;;;;;7.30;1.90;;;7.20;99.90;;;;;;5092173;28;20486;-49
2022/02/05 10:52:49;;;;;;;6.30;1.73;;;7.20;99.90;;;;;;5111186;28;20517;-48
2022/02/05 10:55:34;;;;;;;5.93;1.63;;;7.20;99.90;;;;;;5109146;28;20039;-49
2022/02/05 11:08:08;;;;;;;6.40;2.40;;;7.30;99.90;;;;;;5110875;28;20034;-49
2022/02/05 11:18:55;;;;;;;10.07;2.08;;;7.50;99.90;;;;;;5092557;28;20054;-54
2022/02/05 11:21:23;;;;;;;7.88;2.03;;;7.40;99.90;;;;;;5110600;28;20438;-47
2022/02/05 11:23:53;;;;;;;5.72;1.67;;;7.30;99.90;;;;;;5108633;28;20028;-49
2022/02/05 11:26:20;;;;;;;5.20;2.00;;;7.20;99.90;;;;;;5110574;28;20497;-48
2022/02/05 11:28:51;;;;;;;8.75;2.45;;;7.10;99.90;;;;;;5108575;28;20031;-48
2022/02/05 11:31:29;;;;;;;8.02;2.17;;;6.90;99.90;;;;;;5088341;28;20036;-50
2022/02/05 11:34:13;;;;;;;7.97;2.10;;;6.80;99.90;;;;;;5090127;28;20032;-52
2022/02/05 11:36:40;;;;;;;8.95;2.10;;;6.70;99.90;;;;;;5090165;28;20096;-52
2022/02/05 11:39:07;;;;;;;3.72;1.67;;;6.80;99.90;;;;;;5109252;28;20102;-51
2022/02/05 11:41:34;;;;;;;6.60;2.03;;;7.10;99.90;;;;;;5109721;28;20698;-52
2022/02/05 11:44:49;;;;;;;6.13;1.52;;;7.20;99.90;;;;;;5103482;28;20016;-48
2022/02/05 11:47:21;;;;;;;6.10;1.92;;;7.20;99.90;;;;;;5039100;28;20047;-48
2022/02/05 11:49:53;;;;;;;5.97;1.60;;;7.00;99.90;;;;;;5104647;28;20063;-49
2022/02/05 11:52:37;;;;;;;5.63;2.30;;;6.90;99.90;;;;;;5087496;28;20085;-49
2022/02/05 11:55:08;;;;;;;11.18;2.47;;;6.80;99.90;;;;;;5104649;28;20566;-52
2022/02/05 11:57:44;;;;;;;6.47;1.85;;;6.70;99.90;;;;;;5107561;28;20034;-49
2022/02/05 12:00:12;;;;;;;7.15;1.73;;;6.60;99.90;;;;;;5102315;28;20011;-48
2022/02/05 12:02:40;;;;;;;7.10;2.25;;;6.80;99.90;;;;;;5107630;28;20466;-52
2022/02/05 12:05:21;;;;;;;6.18;1.50;;;6.90;99.90;;;;;;5099566;28;20123;-49
2022/02/05 12:08:05;;;;;;;6.72;1.92;;;6.90;99.90;;;;;;5097933;28;20144;-51
2022/02/05 12:10:40;;;;;;;6.57;1.75;;;6.80;99.90;;;;;;5105053;28;20146;-51
2022/02/05 12:13:18;;;;;;;6.60;2.03;;;6.70;99.90;;;;;;5104094;28;20056;-49
2022/02/05 12:15:46;;;;;;;7.20;1.90;;;6.90;99.90;;;;;;5104752;28;20284;-52
2022/02/05 12:18:23;;;;;;;11.38;2.70;;;6.90;99.90;;;;;;5106729;28;20491;-50
2022/02/05 12:20:53;;;;;;;8.82;1.98;;;6.90;99.90;;;;;;5102823;28;20059;-53
2022/02/05 12:26:00;;;;;;;8.25;2.22;;;7.10;99.90;;;;;;5094405;28;20042;-51
2022/02/05 12:28:29;;;;;;;6.22;1.98;;;7.10;99.90;;;;;;5099867;28;20046;-50
2022/02/05 12:31:02;;;;;;;4.47;2.13;;;7.10;99.90;;;;;;5087322;28;20391;-48
2022/02/05 12:33:53;;;;;;;11.63;2.22;;;7.10;99.90;;;;;;5096547;28;20529;-52
2022/02/05 12:36:39;;;;;;;6.70;2.10;;;7.00;99.90;;;;;;5097627;28;20048;-56
2022/02/05 12:39:15;;;;;;;5.97;2.03;;;7.00;99.90;;;;;;5099583;28;20035;-54
2022/02/05 12:41:58;;;;;;;5.03;1.65;;;7.00;99.90;;;;;;5095923;28;20028;-50
2022/02/05 12:44:27;;;;;;;12.57;2.35;;;6.90;99.90;;;;;;5090307;28;20114;-50
2022/02/05 12:46:59;;;;;;;8.07;1.83;;;6.90;99.90;;;;;;5101136;28;20050;-49
2022/02/05 12:49:28;;;;;;;5.75;1.45;;;6.80;99.90;;;;;;5102384;28;20085;-49
2022/02/05 12:51:56;;;;;;;6.70;1.80;;;6.90;99.90;;;;;;5101130;28;20028;-48
2022/02/05 12:54:26;;;;;;;8.20;2.50;;;6.90;99.90;;;;;;5103985;28;20036;-52
2022/02/05 12:56:54;;;;;;;6.60;1.77;;;6.90;99.90;;;;;;5101265;28;20036;-49
2022/02/05 12:59:27;;;;;;;5.88;1.88;;;6.90;99.90;;;;;;5100777;28;20107;-50
2022/02/05 13:01:55;;;;;;;6.45;2.15;;;6.90;99.90;;;;;;5093958;28;20036;-47
2022/02/05 13:04:29;;;;;;;9.35;2.30;;;6.90;99.90;;;;;;5105137;28;20449;-50
2022/02/05 13:07:15;;;;;;;14.32;2.35;;;6.90;99.90;;;;;;5097303;28;20123;-52
2022/02/05 13:09:51;;;;;;;3.70;1.80;;;6.90;98.20;;;;;;5094707;28;20031;-48
2022/02/05 13:12:25;;;;;;;7.55;2.22;;;6.80;97.20;;;;;;5094172;28;20058;-53
2022/02/05 13:15:30;;;;;;;11.30;2.72;;;6.80;99.20;;;;;;5101276;28;20023;-49
2022/02/05 13:25:54;;;;;;;9.48;1.60;;;7.00;97.00;;;;;;5098468;28;20054;-52
2022/02/05 13:28:51;;;;;;;11.70;1.90;;;7.00;98.60;;;;;;5095622;28;20059;-49
2022/02/05 13:34:11;;;;;;;10.45;2.15;;;7.20;94.50;;;;;;5087108;28;19918;-49
2022/02/05 13:36:58;;;;;;;7.10;1.58;;;7.20;95.40;;;;;;5101068;28;20139;-52
2022/02/05 13:39:51;;;;;;;10.15;2.35;;;7.40;94.40;;;;;;5101264;28;20030;-49
2022/02/05 13:42:30;;;;;;;10.93;3.50;;;7.40;87.10;;;;;;5089211;28;20032;-52
2022/02/05 13:45:19;;;;;;;5.38;1.63;;;7.20;89.50;;;;;;5108764;28;20040;-52
2022/02/05 13:47:44;;;;;;;9.45;1.98;;;7.10;91.80;;;;;;5098546;28;20032;-50
2022/02/05 13:50:19;;;;;;;9.18;2.20;;;7.00;90.90;;;;;;5098842;28;20472;-50
2022/02/05 13:52:51;;;;;;;7.22;1.90;;;7.00;93.30;;;;;;5095142;28;20036;-53
2022/02/05 13:55:32;;;;;;;8.05;1.30;;;6.90;92.00;;;;;;5106094;28;20071;-47
2022/02/05 13:58:09;;;;;;;7.47;1.35;;;6.80;93.90;;;;;;5099744;28;20027;-48
2022/02/05 14:00:39;;;;;;;10.75;1.73;;;6.80;94.80;;;;;;5109600;28;20103;-49
2022/02/05 14:03:08;;;;;;;7.40;1.27;;;6.70;94.50;;;;;;5107613;28;20436;-50
2022/02/05 14:05:34;;;;;;;5.65;1.67;;;6.70;95.60;;;;;;5107769;28;20289;-49
2022/02/05 14:07:59;;;;;;;7.10;2.20;;;6.60;95.60;;;;;;5107472;28;20027;-50
2022/02/05 14:10:25;;;;;;;4.00;1.75;;;6.50;96.20;;;;;;5109410;28;20130;-49
2022/02/05 14:12:56;;;;;;;5.20;1.73;;;6.50;95.60;;;;;;5107212;28;20059;-51
2022/02/05 14:15:23;;;;;;;9.57;1.92;;;6.40;96.60;;;;;;5104543;28;20046;-51
2022/02/05 14:18:04;;;;;;;10.00;2.42;;;6.30;97.80;;;;;;5107397;28;20035;-52
2022/02/05 14:20:31;;;;;;;8.27;2.25;;;6.30;95.90;;;;;;5100874;28;20048;-46
2022/02/05 14:23:08;;;;;;;8.52;2.28;;;6.30;95.50;;;;;;5106956;28;20032;-53
2022/02/05 14:25:46;;;;;;;5.20;2.22;;;6.20;95.80;;;;;;5098361;28;20036;-51
2022/02/05 14:28:27;;;;;;;7.80;2.33;;;6.20;95.20;;;;;;5098281;28;20059;-51
2022/02/05 14:31:05;;;;;;;8.35;1.80;;;6.20;96.30;;;;;;5088699;28;20024;-52
2022/02/05 14:34:01;;;;;;;11.23;2.45;;;6.20;95.50;;;;;;5103202;28;20108;-48
2022/02/05 14:42:01;;;;;;;4.30;1.30;;;6.20;94.40;;;;;;5097667;28;20066;-52
2022/02/05 14:44:27;;;;;;;4.80;1.33;;;6.20;95.30;;;;;;5095657;28;20027;-50
2022/02/05 14:46:52;;;;;;;11.63;3.00;;;6.20;96.70;;;;;;5100635;28;20179;-48
2022/02/05 14:49:18;;;;;;;5.57;1.90;;;6.10;97.10;;;;;;5105056;28;20217;-49
2022/02/05 14:51:44;;;;;;;9.25;1.63;;;6.10;96.60;;;;;;5103156;28;20449;-51
2022/02/05 14:54:11;;;;;;;5.38;1.70;;;6.00;96.10;;;;;;5093376;28;20393;-52
2022/02/05 14:56:37;;;;;;;7.35;1.98;;;6.00;96.60;;;;;;5108330;28;20044;-52
2022/02/05 14:59:04;;;;;;;5.88;1.50;;;5.90;96.30;;;;;;5092309;28;20127;-53
2022/02/05 15:01:30;;;;;;;7.72;1.75;;;5.90;95.40;;;;;;5105489;28;20063;-50
2022/02/05 15:03:57;;;;;;;8.50;1.50;;;5.90;95.70;;;;;;5098271;28;20685;-49
2022/02/05 15:06:26;;;;;;;4.90;1.50;;;5.90;95.80;;;;;;5101197;28;20396;-51
2022/02/05 15:08:53;;;;;;;4.95;1.33;;;5.90;94.40;;;;;;5094221;28;20096;-46
2022/02/05 15:11:19;;;;;;;7.68;1.58;;;5.90;95.60;;;;;;5108032;28;20036;-51
2022/02/05 15:13:45;;;;;;;11.20;2.78;;;5.90;95.20;;;;;;5105126;28;20066;-52
2022/02/05 15:16:12;;;;;;;5.38;1.70;;;5.80;96.30;;;;;;5107502;28;20059;-49
2022/02/05 15:18:47;;;;;;;14.18;2.13;;;5.80;95.20;;;;;;5099224;28;20042;-50
2022/02/05 15:21:12;;;;;;;8.07;2.03;;;5.80;95.50;;;;;;5104188;28;20659;-51
2022/02/05 15:23:38;;;;;;;7.03;1.50;;;5.70;95.60;;;;;;5093465;28;20075;-49
2022/02/05 15:26:04;;;;;;;6.05;1.95;;;5.80;95.70;;;;;;5108624;28;20118;-46
2022/02/05 15:28:30;;;;;;;9.13;1.75;;;5.70;96.00;;;;;;5091016;28;20050;-48
2022/02/05 15:30:56;;;;;;;8.30;1.77;;;5.80;96.00;;;;;;5089995;28;20027;-52
2022/02/05 15:33:23;;;;;;;4.20;1.77;;;5.70;94.90;;;;;;5107611;28;20099;-52
2022/02/05 15:35:51;;;;;;;3.92;1.45;;;5.70;96.00;;;;;;5110434;28;20031;-46
2022/02/05 15:38:24;;;;;;;5.97;1.50;;;5.60;96.40;;;;;;5108083;28;20035;-50
2022/02/05 15:43:46;;;;;;;7.82;2.10;;;5.60;98.10;;;;;;5085665;28;20070;-50
2022/02/05 15:46:13;;;;;;;6.78;1.50;;;5.50;98.20;;;;;;5110194;28;20088;-50
2022/02/05 15:48:39;;;;;;;5.50;1.75;;;5.50;98.60;;;;;;5108218;28;20398;-51
2022/02/05 15:51:05;;;;;;;8.88;2.60;;;5.40;98.90;;;;;;5110174;28;20189;-49
2022/02/05 15:53:34;;;;;;;8.02;2.00;;;5.40;99.10;;;;;;5107977;28;20437;-49